Mount Hotham, Australia
Current Conditions -  °F | °C
As of 2:00 PM on Sunday 26 Oct 2014 (Local Time) from YMAY Reporting Station
Clear Clear  
Wind Chill: 81°   Ceiling: Unl
Heat Index: 81°   Visibility: 6mi
Dew Point: 45°   Wind: 13mph
Humidity: 28%   Direction: 300°WNW
Pressure: 29.83"   Gusts: NA
Location:  37.05°S, 147.33°E
Report Text: YMAY 260300Z AUTO 30011KT 280V340 9999 // NCD 27/07 Q1010
Loading
Personal Weather Stations






























Interactive Weather Map
Tropical Storm Tracking
New forecast layout! Learn more

10-Day Weather Forecast

Advertisements
Track Severe Weather on mobile